Urmia, Urmia Airport (OITR)

NameUrmia Airport
CityUrmia
CountryIran (Islamic Republic of)
ICAOOITR
IATAOMH
Altitude1324 m
CoordinatesGoogle Map
Live Air TrafficLiveATC.net
METAROITR 162151Z 23006KT CAVOK 18/06 Q1017
2019-09-16 21:51:00 Wind: Southwest (230°) 3.09 m/s - Visibility: > 10000 m - Weather: CAVOK - Temperature: 18 °C - Dew point: 6 °C - Humidity: 45.6% - Pressure: 1017 hPa
Statistics

The table below shows the detailed information of all flights to/from Urmia, Urmia Airport (OITR).